Time;durP1;ratioP1;P1;durP2;ratioP2;P2;SDS_P1;SDS_P2;PMS_P1;PMS_P2;Temp;Humidity;BMP_temperature;BMP_pressure;BME280_temperature;BME280_humidity;BME280_pressure;Samples;Min_cycle;Max_cycle;Signal;HPM_P1;HPM_P2
2023/05/05 00:00:52;;;;;;;10.00;5.03;;;;;;;;;;5054375;28;20049;-60
2023/05/05 00:03:19;;;;;;;10.67;4.93;;;;;;;;;;5050813;28;20069;-60
2023/05/05 00:05:45;;;;;;;9.83;5.13;;;;;;;;;;5068745;28;20131;-59
2023/05/05 00:08:11;;;;;;;11.43;5.73;;;;;;;;;;5069282;28;20487;-60
2023/05/05 00:10:37;;;;;;;10.90;5.50;;;;;;;;;;5052555;28;20044;-60
2023/05/05 00:13:03;;;;;;;9.50;4.30;;;;;;;;;;5050681;28;20483;-60
2023/05/05 00:15:29;;;;;;;10.73;5.03;;;;;;;;;;5066642;28;20052;-60
2023/05/05 00:17:55;;;;;;;9.93;5.13;;;;;;;;;;5070962;28;20087;-60
2023/05/05 00:20:22;;;;;;;14.93;5.17;;;;;;;;;;5069092;28;20505;-60
2023/05/05 00:22:48;;;;;;;12.40;5.83;;;;;;;;;;5054038;28;20522;-60
2023/05/05 00:25:14;;;;;;;8.00;5.57;;;;;;;;;;5058686;28;20148;-61
2023/05/05 00:27:40;;;;;;;10.73;5.97;;;;;;;;;;5069708;28;20032;-60
2023/05/05 00:30:06;;;;;;;12.03;5.50;;;;;;;;;;5062485;28;20415;-61
2023/05/05 00:32:33;;;;;;;11.43;5.13;;;;;;;;;;5068742;28;20165;-61
2023/05/05 00:34:59;;;;;;;9.37;4.90;;;;;;;;;;5054834;28;20749;-60
2023/05/05 00:37:25;;;;;;;10.93;5.43;;;;;;;;;;5050638;28;20048;-60
2023/05/05 00:39:52;;;;;;;11.33;5.00;;;;;;;;;;5070374;28;20040;-60
2023/05/05 00:42:18;;;;;;;9.50;5.77;;;;;;;;;;5069537;28;20048;-61
2023/05/05 00:44:44;;;;;;;10.20;5.40;;;;;;;;;;5069582;28;20055;-60
2023/05/05 00:47:10;;;;;;;10.20;5.40;;;;;;;;;;5070394;28;20052;-60
2023/05/05 00:49:37;;;;;;;15.07;6.00;;;;;;;;;;5049496;28;20124;-61
2023/05/05 00:52:05;;;;;;;10.10;5.83;;;;;;;;;;5049745;28;20048;-61
2023/05/05 00:54:32;;;;;;;9.13;5.90;;;;;;;;;;5048498;28;20095;-61
2023/05/05 00:56:58;;;;;;;11.03;5.67;;;;;;;;;;5067943;28;20044;-61
2023/05/05 00:59:24;;;;;;;11.03;5.87;;;;;;;;;;5066466;28;20072;-61
2023/05/05 01:01:50;;;;;;;9.93;5.83;;;;;;;;;;5070205;28;20534;-61
2023/05/05 01:04:17;;;;;;;14.43;6.30;;;;;;;;;;5068799;28;20041;-61
2023/05/05 01:06:46;;;;;;;10.67;6.90;;;;;;;;;;5056754;28;20787;-61
2023/05/05 01:09:24;;;;;;;10.70;6.63;;;;;;;;;;5060457;28;20051;-61
2023/05/05 01:12:02;;;;;;;11.43;5.47;;;;;;;;;;5057593;28;20049;-61
2023/05/05 01:14:36;;;;;;;11.70;6.17;;;;;;;;;;5061801;28;20542;-61
2023/05/05 01:17:08;;;;;;;12.67;5.70;;;;;;;;;;5065250;28;20037;-60
2023/05/05 01:19:53;;;;;;;12.70;5.67;;;;;;;;;;5068902;28;20048;-61
2023/05/05 01:22:22;;;;;;;10.97;6.33;;;;;;;;;;5066119;28;20048;-61
2023/05/05 01:24:56;;;;;;;10.30;5.40;;;;;;;;;;5067191;28;20036;-60
2023/05/05 01:27:48;;;;;;;14.23;6.03;;;;;;;;;;5069610;28;20568;-60
2023/05/05 01:30:28;;;;;;;11.37;5.70;;;;;;;;;;5066469;28;20044;-61
2023/05/05 01:32:57;;;;;;;9.27;5.20;;;;;;;;;;5069371;28;20477;-61
2023/05/05 01:35:24;;;;;;;10.63;6.40;;;;;;;;;;5062831;28;20117;-61
2023/05/05 01:37:59;;;;;;;13.43;5.53;;;;;;;;;;5068643;28;20080;-60
2023/05/05 01:40:26;;;;;;;12.57;6.80;;;;;;;;;;5052254;28;20123;-60
2023/05/05 01:42:53;;;;;;;11.57;6.43;;;;;;;;;;5063975;28;20045;-60
2023/05/05 01:45:21;;;;;;;12.30;6.23;;;;;;;;;;5063976;28;20613;-60
2023/05/05 01:47:48;;;;;;;12.73;6.93;;;;;;;;;;5063808;28;20494;-61
2023/05/05 01:50:14;;;;;;;9.67;6.00;;;;;;;;;;5068831;28;20068;-60
2023/05/05 01:52:41;;;;;;;9.93;5.87;;;;;;;;;;5068101;28;20410;-60
2023/05/05 01:55:08;;;;;;;10.63;5.93;;;;;;;;;;5069392;28;20068;-60
2023/05/05 01:57:36;;;;;;;10.93;5.63;;;;;;;;;;5054298;28;20041;-61
2023/05/05 02:00:03;;;;;;;11.57;6.20;;;;;;;;;;5057445;28;20044;-61
2023/05/05 02:02:30;;;;;;;11.60;6.57;;;;;;;;;;5068887;28;20044;-61
2023/05/05 02:04:57;;;;;;;12.47;6.17;;;;;;;;;;5055371;28;20068;-61
2023/05/05 02:07:23;;;;;;;9.50;5.97;;;;;;;;;;5049078;28;20055;-61
2023/05/05 02:09:50;;;;;;;8.20;5.63;;;;;;;;;;5062466;28;20040;-61
2023/05/05 02:12:17;;;;;;;8.73;5.47;;;;;;;;;;5061401;28;20426;-60
2023/05/05 02:14:45;;;;;;;14.17;6.40;;;;;;;;;;5061331;28;20040;-60
2023/05/05 02:17:13;;;;;;;10.13;6.93;;;;;;;;;;5056764;28;20048;-60
2023/05/05 02:19:40;;;;;;;10.03;6.13;;;;;;;;;;5048917;28;20045;-60
2023/05/05 02:22:06;;;;;;;10.67;7.10;;;;;;;;;;5063350;28;20048;-60
2023/05/05 02:24:32;;;;;;;17.83;6.97;;;;;;;;;;5068745;28;20494;-60
2023/05/05 02:26:59;;;;;;;13.07;6.00;;;;;;;;;;5063492;28;20231;-60
2023/05/05 02:29:35;;;;;;;8.33;6.13;;;;;;;;;;5068813;28;20156;-60
2023/05/05 02:32:04;;;;;;;13.47;6.17;;;;;;;;;;5067684;28;20053;-60
2023/05/05 02:34:31;;;;;;;14.10;6.17;;;;;;;;;;5064947;28;20052;-60
2023/05/05 02:36:57;;;;;;;15.00;6.63;;;;;;;;;;5068448;28;20044;-60
2023/05/05 02:39:31;;;;;;;8.77;6.33;;;;;;;;;;5068043;28;20071;-60
2023/05/05 02:41:58;;;;;;;17.08;6.57;;;;;;;;;;5065102;28;20078;-60
2023/05/05 02:44:25;;;;;;;13.10;6.33;;;;;;;;;;5058131;28;20418;-60
2023/05/05 02:46:52;;;;;;;11.60;6.33;;;;;;;;;;5053970;28;20074;-60
2023/05/05 02:49:18;;;;;;;12.23;6.70;;;;;;;;;;5048171;28;20045;-60
2023/05/05 02:51:44;;;;;;;10.80;6.83;;;;;;;;;;5051825;28;20522;-60
2023/05/05 02:54:10;;;;;;;10.57;6.43;;;;;;;;;;5052484;28;20049;-60
2023/05/05 02:56:40;;;;;;;11.30;6.37;;;;;;;;;;5052120;28;20044;-60
2023/05/05 02:59:21;;;;;;;10.20;6.63;;;;;;;;;;5070062;28;20123;-60
2023/05/05 03:01:53;;;;;;;11.10;6.80;;;;;;;;;;5072554;28;20049;-60
2023/05/05 03:04:29;;;;;;;12.87;6.53;;;;;;;;;;5055299;28;20380;-60
2023/05/05 03:07:01;;;;;;;14.47;6.77;;;;;;;;;;5072258;28;20048;-60
2023/05/05 03:09:27;;;;;;;13.70;7.77;;;;;;;;;;5066368;28;20128;-60
2023/05/05 03:11:56;;;;;;;12.07;7.17;;;;;;;;;;5051598;28;20123;-60
2023/05/05 03:14:23;;;;;;;13.70;8.13;;;;;;;;;;5052036;28;20121;-60
2023/05/05 03:16:49;;;;;;;10.70;6.93;;;;;;;;;;5058681;28;20040;-60
2023/05/05 03:19:20;;;;;;;11.30;7.77;;;;;;;;;;5058835;28;20075;-60
2023/05/05 03:21:47;;;;;;;12.40;6.80;;;;;;;;;;5064739;28;20091;-60
2023/05/05 03:24:17;;;;;;;9.77;7.10;;;;;;;;;;5051870;28;20048;-60
2023/05/05 03:26:44;;;;;;;12.40;6.63;;;;;;;;;;5051959;28;20396;-60
2023/05/05 03:29:10;;;;;;;10.07;7.10;;;;;;;;;;5051371;28;20072;-60
2023/05/05 03:31:37;;;;;;;11.80;7.17;;;;;;;;;;5051982;28;20111;-61
2023/05/05 03:34:03;;;;;;;11.50;7.60;;;;;;;;;;5064255;28;20052;-60
2023/05/05 03:36:29;;;;;;;11.53;7.27;;;;;;;;;;5052018;28;20072;-60
2023/05/05 03:38:56;;;;;;;10.27;7.23;;;;;;;;;;5055950;28;20044;-60
2023/05/05 03:41:23;;;;;;;12.87;8.30;;;;;;;;;;5051653;28;20438;-60
2023/05/05 03:43:49;;;;;;;12.73;8.30;;;;;;;;;;5071443;28;20036;-60
2023/05/05 03:46:15;;;;;;;11.93;7.37;;;;;;;;;;5071556;28;20048;-60
2023/05/05 03:48:41;;;;;;;14.77;8.30;;;;;;;;;;5070065;28;20119;-61
2023/05/05 03:51:08;;;;;;;11.00;7.63;;;;;;;;;;5068379;28;20490;-60
2023/05/05 03:53:34;;;;;;;10.13;7.70;;;;;;;;;;5071047;28;20411;-60
2023/05/05 03:56:00;;;;;;;11.50;7.90;;;;;;;;;;5059478;28;20037;-60
2023/05/05 03:58:26;;;;;;;11.97;7.97;;;;;;;;;;5051061;28;20064;-60
2023/05/05 04:00:52;;;;;;;14.67;8.20;;;;;;;;;;5050462;28;20041;-60
2023/05/05 04:03:18;;;;;;;11.03;7.97;;;;;;;;;;5060949;28;20107;-60
2023/05/05 04:05:44;;;;;;;13.60;9.23;;;;;;;;;;5055479;28;20045;-60
2023/05/05 04:08:10;;;;;;;14.47;8.43;;;;;;;;;;5050981;28;20049;-60
2023/05/05 04:10:36;;;;;;;42.97;11.33;;;;;;;;;;5055613;28;20044;-60
2023/05/05 04:13:03;;;;;;;46.37;14.77;;;;;;;;;;5070993;28;20105;-60
2023/05/05 04:15:29;;;;;;;100.63;20.60;;;;;;;;;;5069275;28;20055;-60
2023/05/05 04:17:55;;;;;;;46.27;19.40;;;;;;;;;;5053025;28;20045;-60
2023/05/05 04:20:21;;;;;;;35.73;19.67;;;;;;;;;;5050844;28;20407;-60
2023/05/05 04:22:47;;;;;;;42.07;21.33;;;;;;;;;;5062894;28;20071;-60
2023/05/05 04:25:13;;;;;;;50.83;24.00;;;;;;;;;;5069884;28;20052;-60
2023/05/05 04:27:39;;;;;;;43.70;22.63;;;;;;;;;;5070866;28;20055;-60
2023/05/05 04:30:05;;;;;;;36.07;21.37;;;;;;;;;;5069456;28;20049;-60
2023/05/05 04:32:31;;;;;;;27.37;18.60;;;;;;;;;;5070353;28;20423;-60
2023/05/05 04:34:57;;;;;;;44.60;25.37;;;;;;;;;;5061023;28;20498;-60
2023/05/05 04:37:24;;;;;;;39.90;24.37;;;;;;;;;;5061070;28;20123;-61
2023/05/05 04:39:50;;;;;;;57.43;28.83;;;;;;;;;;5062110;28;20056;-60
2023/05/05 04:42:16;;;;;;;65.47;31.77;;;;;;;;;;5070899;28;20055;-61
2023/05/05 04:44:42;;;;;;;28.23;19.73;;;;;;;;;;5057058;28;20041;-60
2023/05/05 04:47:08;;;;;;;60.87;29.13;;;;;;;;;;5051998;28;20045;-60
2023/05/05 04:49:34;;;;;;;65.13;31.23;;;;;;;;;;5053177;28;20049;-60
2023/05/05 04:52:00;;;;;;;67.40;28.87;;;;;;;;;;5050010;28;20063;-60
2023/05/05 04:54:26;;;;;;;58.37;29.43;;;;;;;;;;5063006;28;20131;-60
2023/05/05 04:56:53;;;;;;;67.33;32.57;;;;;;;;;;5069768;28;20044;-60
2023/05/05 04:59:19;;;;;;;49.10;27.77;;;;;;;;;;5064825;28;20052;-60
2023/05/05 05:01:45;;;;;;;64.57;32.13;;;;;;;;;;5069885;28;20131;-60
2023/05/05 05:04:12;;;;;;;73.57;33.73;;;;;;;;;;5065309;28;20044;-61
2023/05/05 05:06:38;;;;;;;69.00;32.30;;;;;;;;;;5067722;28;20044;-60
2023/05/05 05:09:04;;;;;;;103.20;40.83;;;;;;;;;;5063100;28;20037;-60
2023/05/05 05:11:30;;;;;;;69.93;34.37;;;;;;;;;;5049600;28;20049;-60
2023/05/05 05:13:56;;;;;;;53.43;29.10;;;;;;;;;;5052471;28;20049;-61
2023/05/05 05:16:24;;;;;;;91.20;38.50;;;;;;;;;;5064560;28;20053;-61
2023/05/05 05:18:50;;;;;;;91.93;40.63;;;;;;;;;;5061358;28;20048;-61
2023/05/05 05:21:16;;;;;;;36.03;25.33;;;;;;;;;;5069681;28;20123;-61
2023/05/05 05:23:42;;;;;;;70.27;36.23;;;;;;;;;;5056309;28;20051;-60
2023/05/05 05:26:08;;;;;;;72.33;36.80;;;;;;;;;;5061284;28;20051;-61
2023/05/05 05:28:34;;;;;;;109.67;45.60;;;;;;;;;;5068882;28;20053;-61
2023/05/05 05:31:00;;;;;;;50.57;30.60;;;;;;;;;;5051033;28;20053;-60
2023/05/05 05:33:26;;;;;;;32.90;24.40;;;;;;;;;;5049371;28;20044;-60
2023/05/05 05:35:52;;;;;;;76.97;37.33;;;;;;;;;;5059210;28;20063;-60
2023/05/05 05:38:18;;;;;;;61.37;32.30;;;;;;;;;;5069283;28;20059;-61
2023/05/05 05:40:44;;;;;;;64.87;34.83;;;;;;;;;;5069104;28;20486;-61
2023/05/05 05:43:10;;;;;;;66.33;35.83;;;;;;;;;;5064701;28;20102;-61
2023/05/05 05:45:36;;;;;;;76.33;37.70;;;;;;;;;;5048370;28;20133;-61
2023/05/05 05:48:02;;;;;;;59.70;31.73;;;;;;;;;;5057423;28;20040;-62
2023/05/05 05:50:28;;;;;;;61.27;32.77;;;;;;;;;;5049025;28;20052;-62
2023/05/05 05:52:54;;;;;;;75.97;36.73;;;;;;;;;;5048176;28;20045;-62
2023/05/05 05:55:20;;;;;;;49.47;29.63;;;;;;;;;;5049166;28;20124;-62
2023/05/05 05:57:46;;;;;;;83.13;40.47;;;;;;;;;;5048624;28;20145;-61
2023/05/05 06:00:14;;;;;;;64.00;35.10;;;;;;;;;;5050800;28;20644;-61
2023/05/05 06:02:40;;;;;;;44.07;26.03;;;;;;;;;;5068860;28;20078;-62
2023/05/05 06:05:06;;;;;;;56.53;31.33;;;;;;;;;;5068391;28;20657;-62
2023/05/05 06:07:32;;;;;;;48.43;28.20;;;;;;;;;;5061730;28;20048;-61
2023/05/05 06:09:58;;;;;;;48.93;29.97;;;;;;;;;;5061867;28;20044;-61
2023/05/05 06:12:24;;;;;;;37.37;27.23;;;;;;;;;;5054840;28;20565;-63
2023/05/05 06:14:50;;;;;;;35.20;25.83;;;;;;;;;;5053401;28;20388;-60
2023/05/05 06:17:16;;;;;;;34.67;25.53;;;;;;;;;;5056130;28;20044;-61
2023/05/05 06:19:42;;;;;;;34.03;23.87;;;;;;;;;;5058921;28;20146;-61
2023/05/05 06:22:08;;;;;;;28.23;22.10;;;;;;;;;;5053546;28;20044;-61
2023/05/05 06:24:34;;;;;;;30.00;20.10;;;;;;;;;;5054694;28;20040;-61
2023/05/05 06:27:01;;;;;;;23.33;15.97;;;;;;;;;;5054416;28;20047;-61
2023/05/05 06:29:27;;;;;;;21.80;17.03;;;;;;;;;;5057653;28;20064;-61
2023/05/05 06:31:54;;;;;;;23.53;19.93;;;;;;;;;;5054389;28;20044;-61
2023/05/05 06:34:20;;;;;;;25.10;15.53;;;;;;;;;;5053053;28;20056;-61
2023/05/05 06:36:46;;;;;;;24.17;18.73;;;;;;;;;;5056700;28;20495;-62
2023/05/05 06:39:12;;;;;;;24.53;17.47;;;;;;;;;;5051809;28;20060;-62
2023/05/05 06:41:38;;;;;;;22.83;16.53;;;;;;;;;;5053797;28;20438;-61
2023/05/05 06:44:04;;;;;;;22.17;18.93;;;;;;;;;;5055151;28;20124;-61
2023/05/05 06:46:30;;;;;;;20.93;16.87;;;;;;;;;;5053696;28;20433;-61
2023/05/05 06:48:56;;;;;;;22.90;18.37;;;;;;;;;;5058327;28;20447;-61
2023/05/05 06:51:22;;;;;;;19.07;15.73;;;;;;;;;;5057114;28;20045;-61
2023/05/05 06:53:49;;;;;;;22.50;15.93;;;;;;;;;;5047732;28;20136;-62
2023/05/05 06:56:15;;;;;;;32.60;23.70;;;;;;;;;;5046842;28;20525;-61
2023/05/05 06:58:41;;;;;;;30.17;23.27;;;;;;;;;;5054783;28;20679;-62
2023/05/05 07:01:07;;;;;;;21.17;15.57;;;;;;;;;;5055568;28;20036;-61
2023/05/05 07:03:33;;;;;;;18.77;15.03;;;;;;;;;;5055370;28;20056;-62
2023/05/05 07:05:59;;;;;;;26.13;16.13;;;;;;;;;;5053896;28;20399;-62
2023/05/05 07:08:25;;;;;;;22.57;15.67;;;;;;;;;;5066241;28;20041;-61
2023/05/05 07:10:51;;;;;;;19.53;15.87;;;;;;;;;;5054371;28;20037;-61
2023/05/05 07:13:17;;;;;;;24.30;17.63;;;;;;;;;;5046560;28;20051;-62
2023/05/05 07:15:45;;;;;;;22.40;18.53;;;;;;;;;;5048104;28;20037;-61
2023/05/05 07:18:14;;;;;;;29.00;17.90;;;;;;;;;;5047830;28;20751;-62
2023/05/05 07:20:40;;;;;;;24.03;18.57;;;;;;;;;;5047749;28;20047;-62
2023/05/05 07:23:07;;;;;;;23.83;17.63;;;;;;;;;;5046691;28;20407;-62
2023/05/05 07:25:33;;;;;;;24.70;20.37;;;;;;;;;;5047533;28;20045;-61
2023/05/05 07:27:59;;;;;;;20.37;16.40;;;;;;;;;;5047956;28;20049;-62
2023/05/05 07:30:25;;;;;;;26.80;19.17;;;;;;;;;;5047899;28;20049;-61
2023/05/05 07:32:51;;;;;;;20.47;18.27;;;;;;;;;;5049758;28;20057;-61
2023/05/05 07:35:17;;;;;;;17.70;15.80;;;;;;;;;;5056897;28;20414;-64
2023/05/05 07:37:44;;;;;;;23.77;18.80;;;;;;;;;;5059178;28;20045;-62
2023/05/05 07:40:11;;;;;;;18.93;16.37;;;;;;;;;;5062298;28;20120;-61
2023/05/05 07:42:37;;;;;;;19.67;17.27;;;;;;;;;;5058474;28;20049;-62
2023/05/05 07:45:03;;;;;;;24.87;19.50;;;;;;;;;;5061430;28;20052;-62
2023/05/05 07:47:30;;;;;;;22.77;17.77;;;;;;;;;;5063773;28;20040;-62
2023/05/05 07:49:56;;;;;;;26.03;18.27;;;;;;;;;;5059306;28;20431;-62
2023/05/05 07:52:22;;;;;;;23.37;18.73;;;;;;;;;;5063413;28;20044;-62
2023/05/05 07:54:48;;;;;;;28.80;19.47;;;;;;;;;;5060639;28;20916;-62
2023/05/05 07:57:14;;;;;;;23.90;18.13;;;;;;;;;;5063440;28;20052;-61
2023/05/05 07:59:42;;;;;;;21.93;16.70;;;;;;;;;;5060869;28;20041;-61
2023/05/05 08:02:15;;;;;;;23.60;17.43;;;;;;;;;;5060847;28;20697;-62
2023/05/05 08:04:41;;;;;;;25.97;17.43;;;;;;;;;;5071356;28;20045;-61
2023/05/05 08:07:08;;;;;;;20.27;14.50;;;;;;;;;;5060745;28;20138;-61
2023/05/05 08:09:34;;;;;;;21.80;17.07;;;;;;;;;;5059143;28;20135;-62
2023/05/05 08:12:01;;;;;;;52.40;19.47;;;;;;;;;;5056328;28;20051;-62
2023/05/05 08:14:27;;;;;;;23.40;16.40;;;;;;;;;;5057905;28;20056;-61
2023/05/05 08:16:54;;;;;;;19.90;14.30;;;;;;;;;;5060650;28;20136;-62
2023/05/05 08:19:20;;;;;;;18.47;15.50;;;;;;;;;;5060569;28;20037;-62
2023/05/05 08:21:46;;;;;;;20.30;14.47;;;;;;;;;;5057930;28;20033;-60
2023/05/05 08:24:12;;;;;;;18.47;13.33;;;;;;;;;;5057646;28;20048;-60
2023/05/05 08:26:38;;;;;;;17.30;14.30;;;;;;;;;;5061750;28;20120;-60
2023/05/05 08:29:04;;;;;;;22.07;14.53;;;;;;;;;;5061180;28;20049;-60
2023/05/05 08:31:35;;;;;;;18.20;14.53;;;;;;;;;;5056321;28;20517;-61
2023/05/05 08:34:01;;;;;;;19.13;14.37;;;;;;;;;;5058597;28;20418;-61
2023/05/05 08:36:27;;;;;;;17.00;14.33;;;;;;;;;;5069236;28;20045;-60
2023/05/05 08:38:54;;;;;;;25.93;15.13;;;;;;;;;;5066392;28;20045;-60
2023/05/05 08:41:20;;;;;;;19.77;14.33;;;;;;;;;;5051727;28;20601;-60
2023/05/05 08:43:46;;;;;;;19.80;13.97;;;;;;;;;;5050517;28;20084;-60
2023/05/05 08:46:13;;;;;;;21.10;14.87;;;;;;;;;;5050429;28;20045;-60
2023/05/05 08:48:43;;;;;;;16.13;13.63;;;;;;;;;;5048879;28;20041;-61
2023/05/05 08:51:10;;;;;;;20.80;14.53;;;;;;;;;;5050177;28;20056;-62
2023/05/05 08:53:42;;;;;;;21.47;14.20;;;;;;;;;;5050461;28;20048;-62
2023/05/05 08:56:08;;;;;;;18.57;14.33;;;;;;;;;;5050113;28;20509;-59
2023/05/05 08:58:36;;;;;;;21.30;13.90;;;;;;;;;;5049670;28;20569;-61
2023/05/05 09:01:03;;;;;;;15.87;12.10;;;;;;;;;;5050092;28;20048;-62
2023/05/05 09:03:29;;;;;;;17.13;12.23;;;;;;;;;;5049740;28;20044;-62
2023/05/05 09:05:55;;;;;;;22.37;13.60;;;;;;;;;;5049937;28;20045;-62
2023/05/05 09:08:21;;;;;;;12.63;10.03;;;;;;;;;;5050054;28;20415;-62
2023/05/05 09:10:48;;;;;;;11.10;7.50;;;;;;;;;;5049529;28;20089;-62
2023/05/05 09:13:14;;;;;;;10.63;7.67;;;;;;;;;;5050034;28;20420;-62
2023/05/05 09:15:41;;;;;;;12.10;7.77;;;;;;;;;;5054561;28;20075;-62
2023/05/05 09:18:13;;;;;;;12.27;8.30;;;;;;;;;;5059998;28;20045;-62
2023/05/05 09:20:40;;;;;;;13.63;8.65;;;;;;;;;;5059161;28;20079;-62
2023/05/05 09:23:07;;;;;;;10.40;7.80;;;;;;;;;;5059719;28;20074;-62
2023/05/05 09:25:33;;;;;;;9.20;6.80;;;;;;;;;;5068475;28;20056;-61
2023/05/05 09:28:07;;;;;;;12.30;7.40;;;;;;;;;;5068883;28;20044;-61
2023/05/05 09:30:34;;;;;;;9.80;8.00;;;;;;;;;;5057636;28;20056;-61
2023/05/05 09:33:01;;;;;;;18.30;8.30;;;;;;;;;;5065155;28;20056;-61
2023/05/05 09:35:28;;;;;;;13.67;7.93;;;;;;;;;;5063138;28;20044;-61
2023/05/05 09:37:54;;;;;;;12.77;8.33;;;;;;;;;;5065622;28;20041;-61
2023/05/05 09:40:21;;;;;;;10.67;8.90;;;;;;;;;;5062917;28;20509;-62
2023/05/05 09:42:47;;;;;;;11.70;7.83;;;;;;;;;;5059811;28;20576;-61
2023/05/05 09:45:19;;;;;;;11.97;7.70;;;;;;;;;;5056458;28;20083;-61
2023/05/05 09:47:46;;;;;;;12.63;8.05;;;;;;;;;;5057514;28;20044;-61
2023/05/05 09:50:14;;;;;;;10.00;7.33;;;;;;;;;;5057718;28;20113;-62
2023/05/05 09:53:01;;;;;;;9.13;6.10;;;;;;;;;;5057600;28;20121;-61
2023/05/05 09:55:27;;;;;;;9.67;5.93;;;;;;;;;;5057330;28;20056;-61
2023/05/05 09:57:53;;;;;;;9.37;6.20;;;;;;;;;;5056993;28;20044;-61
2023/05/05 10:00:20;;;;;;;9.47;5.80;;;;;;;;;;5058661;28;20033;-60
2023/05/05 10:02:46;;;;;;;9.67;5.50;;;;;;;;;;5059247;28;20542;-61
2023/05/05 10:05:13;;;;;;;11.03;5.67;;;;;;;;;;5056611;28;20041;-62
2023/05/05 10:07:40;;;;;;;6.80;5.00;;;;;;;;;;5057602;28;20099;-62
2023/05/05 10:10:07;;;;;;;10.00;6.00;;;;;;;;;;5057158;28;20414;-61
2023/05/05 10:12:36;;;;;;;7.40;5.05;;;;;;;;;;5059692;28;20047;-61
2023/05/05 10:15:06;;;;;;;7.45;5.20;;;;;;;;;;5058589;28;20045;-61
2023/05/05 10:17:35;;;;;;;9.82;5.28;;;;;;;;;;5063314;28;20045;-61
2023/05/05 10:20:02;;;;;;;8.27;5.55;;;;;;;;;;5061019;28;20045;-61
2023/05/05 10:22:32;;;;;;;8.88;5.03;;;;;;;;;;5055600;28;20155;-61
2023/05/05 10:25:02;;;;;;;6.72;4.40;;;;;;;;;;5056772;28;20083;-61
2023/05/05 10:27:29;;;;;;;6.82;4.40;;;;;;;;;;5057684;28;20056;-61
2023/05/05 10:30:01;;;;;;;8.48;4.20;;;;;;;;;;5064777;28;20048;-61
2023/05/05 10:32:37;;;;;;;7.00;4.05;;;;;;;;;;5069022;28;20092;-60
2023/05/05 10:35:03;;;;;;;6.40;2.78;;;;;;;;;;5068533;28;20051;-61
2023/05/05 10:37:30;;;;;;;7.45;3.67;;;;;;;;;;5068182;28;20079;-61
2023/05/05 10:39:59;;;;;;;5.50;2.55;;;;;;;;;;5068468;28;20048;-61
2023/05/05 10:42:26;;;;;;;9.45;3.42;;;;;;;;;;5063690;28;20132;-61
2023/05/05 10:44:52;;;;;;;7.07;3.70;;;;;;;;;;5052723;28;20053;-61
2023/05/05 10:47:20;;;;;;;6.72;4.00;;;;;;;;;;5060359;28;20045;-61
2023/05/05 10:49:59;;;;;;;7.00;4.15;;;;;;;;;;5050334;28;20041;-61
2023/05/05 10:52:32;;;;;;;7.18;4.25;;;;;;;;;;5048729;28;20041;-61
2023/05/05 10:55:07;;;;;;;7.38;4.18;;;;;;;;;;5048177;28;20107;-61
2023/05/05 10:57:36;;;;;;;6.95;3.22;;;;;;;;;;5053938;28;20060;-61
2023/05/05 11:00:03;;;;;;;4.13;2.35;;;;;;;;;;5068382;28;20079;-61
2023/05/05 11:02:30;;;;;;;6.38;3.38;;;;;;;;;;5058508;28;20052;-62
2023/05/05 11:05:20;;;;;;;3.92;2.83;;;;;;;;;;5058981;28;20447;-61
2023/05/05 11:07:48;;;;;;;6.63;3.40;;;;;;;;;;5057613;28;20147;-61
2023/05/05 11:10:15;;;;;;;7.60;3.67;;;;;;;;;;5057690;28;20451;-61
2023/05/05 11:13:01;;;;;;;5.80;2.85;;;;;;;;;;5064039;28;20391;-61
2023/05/05 11:15:30;;;;;;;6.47;2.60;;;;;;;;;;5067693;28;20458;-61
2023/05/05 11:17:57;;;;;;;7.53;3.40;;;;;;;;;;5053477;28;20052;-60
2023/05/05 11:20:38;;;;;;;5.45;3.13;;;;;;;;;;5056706;28;20458;-60
2023/05/05 11:23:04;;;;;;;6.55;2.70;;;;;;;;;;5058572;28;20724;-60
2023/05/05 11:25:37;;;;;;;5.43;3.13;;;;;;;;;;5057186;28;20487;-61
2023/05/05 11:28:17;;;;;;;5.70;3.10;;;;;;;;;;5058680;28;20045;-61
2023/05/05 11:30:55;;;;;;;8.40;4.22;;;;;;;;;;5057931;28;20131;-61
2023/05/05 11:33:30;;;;;;;7.70;3.47;;;;;;;;;;5056868;28;20572;-61
2023/05/05 11:35:56;;;;;;;7.43;3.60;;;;;;;;;;5068383;28;20128;-61
2023/05/05 11:38:28;;;;;;;10.35;4.63;;;;;;;;;;5071708;28;20057;-61
2023/05/05 11:40:58;;;;;;;5.57;4.10;;;;;;;;;;5067812;28;20044;-60
2023/05/05 11:43:24;;;;;;;7.55;4.30;;;;;;;;;;5071409;28;20128;-60
2023/05/05 11:46:09;;;;;;;7.82;4.18;;;;;;;;;;5057339;28;20098;-60
2023/05/05 11:48:44;;;;;;;11.65;5.38;;;;;;;;;;5050996;28;20052;-60
2023/05/05 11:51:12;;;;;;;8.55;4.20;;;;;;;;;;5054340;28;20075;-61
2023/05/05 11:53:41;;;;;;;9.60;4.35;;;;;;;;;;5054139;28;20086;-60
2023/05/05 11:56:08;;;;;;;8.27;5.03;;;;;;;;;;5070974;28;20052;-61
2023/05/05 11:58:34;;;;;;;7.20;4.60;;;;;;;;;;5069870;28;20045;-60
2023/05/05 12:01:04;;;;;;;11.90;5.10;;;;;;;;;;5068226;28;20052;-58
2023/05/05 12:03:34;;;;;;;8.47;4.03;;;;;;;;;;5057509;28;20048;-59
2023/05/05 12:06:00;;;;;;;13.13;5.43;;;;;;;;;;5061727;28;20690;-62
2023/05/05 12:08:27;;;;;;;7.40;3.80;;;;;;;;;;5069876;28;20045;-58
2023/05/05 12:10:53;;;;;;;6.40;3.83;;;;;;;;;;5069034;28;20115;-60
2023/05/05 12:13:19;;;;;;;5.13;3.33;;;;;;;;;;5069904;28;20605;-60
2023/05/05 12:15:45;;;;;;;8.67;3.63;;;;;;;;;;5069766;28;20036;-59
2023/05/05 12:18:20;;;;;;;5.73;3.20;;;;;;;;;;5070782;28;20498;-60
2023/05/05 12:20:47;;;;;;;7.13;3.67;;;;;;;;;;5070116;28;20601;-62
2023/05/05 12:23:13;;;;;;;5.20;2.57;;;;;;;;;;5068604;28;20538;-60
2023/05/05 12:25:40;;;;;;;5.97;3.27;;;;;;;;;;5068588;28;20072;-60
2023/05/05 12:28:07;;;;;;;12.00;4.70;;;;;;;;;;5062081;28;20052;-60
2023/05/05 12:30:33;;;;;;;13.03;5.73;;;;;;;;;;5059571;28;20147;-60
2023/05/05 12:33:03;;;;;;;11.93;5.37;;;;;;;;;;5056868;28;20144;-59
2023/05/05 12:35:30;;;;;;;7.20;3.07;;;;;;;;;;5050497;28;20495;-60
2023/05/05 12:37:57;;;;;;;11.67;3.70;;;;;;;;;;5049999;28;20049;-60
2023/05/05 12:40:42;;;;;;;11.87;4.10;;;;;;;;;;5049800;28;20045;-61
2023/05/05 12:43:08;;;;;;;10.83;4.97;;;;;;;;;;5049186;28;20394;-61
2023/05/05 12:45:34;;;;;;;10.87;3.63;;;;;;;;;;5047811;28;20052;-61
2023/05/05 12:48:00;;;;;;;11.17;3.37;;;;;;;;;;5048106;28;20049;-61
2023/05/05 12:50:30;;;;;;;13.87;3.60;;;;;;;;;;5047860;28;20410;-61
2023/05/05 12:52:56;;;;;;;19.77;4.20;;;;;;;;;;5047764;28;20044;-61
2023/05/05 12:55:35;;;;;;;19.00;4.13;;;;;;;;;;5047903;28;20045;-61
2023/05/05 12:58:03;;;;;;;24.73;4.33;;;;;;;;;;5047709;28;20422;-61
2023/05/05 13:00:29;;;;;;;18.17;4.30;;;;;;;;;;5047810;28;20049;-61
2023/05/05 13:02:56;;;;;;;25.33;4.23;;;;;;;;;;5047177;28;20049;-61
2023/05/05 13:05:32;;;;;;;21.07;3.60;;;;;;;;;;5048030;28;20547;-62
2023/05/05 13:07:58;;;;;;;10.70;2.50;;;;;;;;;;5048654;28;20126;-61
2023/05/05 13:10:24;;;;;;;8.30;2.93;;;;;;;;;;5049607;28;20052;-62
2023/05/05 13:12:50;;;;;;;7.73;2.50;;;;;;;;;;5049039;28;20041;-62
2023/05/05 13:15:16;;;;;;;4.20;1.30;;;;;;;;;;5049434;28;20047;-61
2023/05/05 13:17:42;;;;;;;5.00;1.60;;;;;;;;;;5049316;28;20552;-62
2023/05/05 13:20:09;;;;;;;3.07;1.10;;;;;;;;;;5049713;28;20106;-62
2023/05/05 13:22:36;;;;;;;6.83;2.33;;;;;;;;;;5048950;28;20132;-62
2023/05/05 13:25:02;;;;;;;10.03;1.70;;;;;;;;;;5049033;28;20045;-62
2023/05/05 13:27:28;;;;;;;8.43;2.50;;;;;;;;;;5049074;28;20118;-62
2023/05/05 13:29:54;;;;;;;7.43;2.87;;;;;;;;;;5048115;28;20056;-62
2023/05/05 13:32:20;;;;;;;4.63;1.90;;;;;;;;;;5049131;28;20041;-62
2023/05/05 13:34:47;;;;;;;9.23;2.73;;;;;;;;;;5048320;28;20041;-62
2023/05/05 13:37:13;;;;;;;7.97;2.90;;;;;;;;;;5048642;28;20049;-62
2023/05/05 13:39:39;;;;;;;7.17;2.37;;;;;;;;;;5048713;28;20426;-62
2023/05/05 13:42:05;;;;;;;6.73;2.77;;;;;;;;;;5048758;28;20056;-62
2023/05/05 13:44:31;;;;;;;5.90;2.60;;;;;;;;;;5055147;28;20045;-62
2023/05/05 13:46:57;;;;;;;7.17;2.33;;;;;;;;;;5068645;28;20052;-61
2023/05/05 13:49:23;;;;;;;5.83;2.60;;;;;;;;;;5065063;28;20040;-62
2023/05/05 13:51:49;;;;;;;10.23;2.20;;;;;;;;;;5059575;28;20068;-62
2023/05/05 13:54:15;;;;;;;15.97;2.93;;;;;;;;;;5059598;28;20135;-63
2023/05/05 13:56:42;;;;;;;10.93;2.20;;;;;;;;;;5055530;28;20044;-62
2023/05/05 13:59:09;;;;;;;12.40;2.73;;;;;;;;;;5050372;28;20183;-63
2023/05/05 14:01:35;;;;;;;7.60;2.83;;;;;;;;;;5053288;28;20119;-63
2023/05/05 14:04:01;;;;;;;13.67;3.13;;;;;;;;;;5053869;28;20045;-63
2023/05/05 14:06:27;;;;;;;10.03;4.07;;;;;;;;;;5055804;28;20135;-62
2023/05/05 14:08:53;;;;;;;17.70;4.37;;;;;;;;;;5056420;28;20056;-62
2023/05/05 14:11:19;;;;;;;22.27;4.83;;;;;;;;;;5056932;28;20094;-62
2023/05/05 14:13:46;;;;;;;20.47;5.93;;;;;;;;;;5056349;28;20099;-62
2023/05/05 14:16:12;;;;;;;9.83;4.20;;;;;;;;;;5058218;28;20044;-62
2023/05/05 14:18:38;;;;;;;18.13;5.60;;;;;;;;;;5056836;28;20045;-62
2023/05/05 14:21:04;;;;;;;11.67;5.17;;;;;;;;;;5053561;28;20041;-61
2023/05/05 14:23:31;;;;;;;16.17;4.50;;;;;;;;;;5056381;28;20043;-62
2023/05/05 14:25:57;;;;;;;16.13;4.03;;;;;;;;;;5056224;28;20123;-62
2023/05/05 14:28:23;;;;;;;14.60;3.80;;;;;;;;;;5053973;28;20411;-62
2023/05/05 14:30:49;;;;;;;18.23;4.87;;;;;;;;;;5056411;28;20084;-63